Hauptseite
METAR-TAF:

METAR-TAF

Flughäfen :

Curaçao, Niederländische Antillen

Flughafen Curaçao

Breite: 12-12N, Länge: 068-58W, Höhe: 9 m

Beobachtung

Neuester Wetterbericht von vor 11 Minuten, um 18:00 UTC
Wind 15 kt aus Ost
Temperatur 30°C
Luftfeuchtigkeit 62%
Luftdruck 1014 hPa
Sichtweite 10 km oder mehr

METAR: TNCC 201800Z AUTO 10015KT 9999 NCD 30/22 Q1014 NOSIG

Zeit: 14:11 (18:11 UTC)

Prognose

Neuester Wetterbericht von vor 2 Stunden und 41 Minuten, um 15:30 UTC
Gültige Prognose vom 20 um 18 UTC bis 21 um 18 UTC
Wind 17 kt aus Ost
Sichtweite 10 km oder mehr
Aufgelockert bewölkt in der Höhe von 2200 ft
Wahrscheinlichkeit 30% :
Zeitweise
vom 21 um 06 UTC bis 21 um 16 UTC
Durchbrochene Bewölkung in der Höhe von 1500 ft

TAF: TNCC 201530Z 2018/2118 10017KT 9999 SCT022 PROB30 TEMPO 2106/2116 BKN015

Wetterbeobachtungen und Prognosen von mehr als 4000 Flughäfen (METAR und TAF Bericht).

Die verfügbaren Stationen werden durch gelbe und rote Markierungen auf der Karte dargestellt.

Führen Sie die Maus auf sie, um den Namen der Station zu sehen.

Darauf klicken, um die Beobachtung von Wetterbeobachtungen und Prognosen zu sehen.

Um die Karte zu ändern : klicken Sie auf den grünen Tasten mit einem schwarzen Kreuz Zum Vergrößern, auf den grünen Button mit einem Gedankenstrich zu verkleinern, oder auf die grünen Pfeile für benachbarte Karten.


METAR-TAF: